createdAt,value
2016-05-10T00:00:07.374Z,16.4
2016-05-10T00:00:17.361Z,16.4
2016-05-10T00:00:27.346Z,16.4
2016-05-10T00:00:37.346Z,16.4
2016-05-10T00:00:47.346Z,16.4
2016-05-10T00:00:57.346Z,16.4
2016-05-10T00:01:07.330Z,16.4
2016-05-10T00:01:17.332Z,16.4
2016-05-10T00:01:27.332Z,16.4
2016-05-10T00:01:37.332Z,16.5
2016-05-10T00:01:47.316Z,16.5
2016-05-10T00:01:57.316Z,16.4
2016-05-10T00:02:07.301Z,16.5
2016-05-10T00:02:17.304Z,16.4
2016-05-10T00:02:27.288Z,16.3
2016-05-10T00:02:37.288Z,16.5
2016-05-10T00:02:47.288Z,16.5
2016-05-10T00:02:57.288Z,16.4
2016-05-10T00:03:07.288Z,16.4
2016-05-10T00:03:17.275Z,16.5
2016-05-10T00:03:27.275Z,16.5
2016-05-10T00:03:37.275Z,16.5
2016-05-10T00:03:47.260Z,16.5
2016-05-10T00:03:57.260Z,16.5
2016-05-10T00:04:07.260Z,16.5
2016-05-10T00:04:17.263Z,16.4
2016-05-10T00:04:27.247Z,16.5
2016-05-10T00:04:37.247Z,16.4
2016-05-10T00:04:47.232Z,16.5
2016-05-10T00:04:57.232Z,16.5
2016-05-10T00:05:07.232Z,16.5
2016-05-10T00:05:17.218Z,16.5
2016-05-10T00:05:27.218Z,16.5
2016-05-10T00:05:37.218Z,16.4
2016-05-10T00:05:47.218Z,16.4
2016-05-10T00:05:57.202Z,16.5
2016-05-10T00:06:07.202Z,16.5
2016-05-10T00:06:17.205Z,16.5
2016-05-10T00:06:27.190Z,16.5
2016-05-10T00:06:37.190Z,16.5
2016-05-10T00:06:47.190Z,16.5
2016-05-10T00:06:57.190Z,16.5
2016-05-10T00:07:07.174Z,16.5
2016-05-10T00:07:17.177Z,16.5
2016-05-10T00:07:27.161Z,16.5
2016-05-10T00:07:37.161Z,16.5
2016-05-10T00:07:47.161Z,16.5
2016-05-10T00:07:57.146Z,16.5
2016-05-10T00:08:07.161Z,16.5
2016-05-10T00:08:17.148Z,16.5
2016-05-10T00:08:27.148Z,16.5
2016-05-10T00:08:37.132Z,16.5
2016-05-10T00:08:47.132Z,16.5
2016-05-10T00:08:57.132Z,16.5
2016-05-10T00:09:07.132Z,16.5
2016-05-10T00:09:17.120Z,16.5
2016-05-10T00:09:27.120Z,16.5
2016-05-10T00:09:37.104Z,16.5
2016-05-10T00:09:47.104Z,16.5
2016-05-10T00:09:57.104Z,16.5
2016-05-10T00:10:07.104Z,16.5
2016-05-10T00:10:17.091Z,16.5
2016-05-10T00:10:27.091Z,16.5
2016-05-10T00:10:37.091Z,16.5
2016-05-10T00:10:47.076Z,16.5
2016-05-10T00:10:57.076Z,16.5
2016-05-10T00:11:07.076Z,16.5
2016-05-10T00:11:17.079Z,16.5
2016-05-10T00:11:27.063Z,16.5
2016-05-10T00:11:37.063Z,16.5
2016-05-10T00:11:47.063Z,16.5
2016-05-10T00:11:57.047Z,16.5
2016-05-10T00:12:07.047Z,16.5
2016-05-10T00:12:17.076Z,16.5
2016-05-10T00:12:27.076Z,16.5
2016-05-10T00:12:37.061Z,16.5
2016-05-10T00:12:47.061Z,16.5
2016-05-10T00:12:57.045Z,16.5
2016-05-10T00:13:07.045Z,16.5
2016-05-10T00:13:17.074Z,16.5
2016-05-10T00:13:27.089Z,16.5
2016-05-10T00:13:37.074Z,16.5
2016-05-10T00:13:47.074Z,16.6
2016-05-10T00:13:57.074Z,16.5
2016-05-10T00:14:07.058Z,16.5
2016-05-10T00:14:17.102Z,16.5
2016-05-10T00:14:27.102Z,16.5
2016-05-10T00:14:37.086Z,16.5
2016-05-10T00:14:47.086Z,16.5
2016-05-10T00:14:57.086Z,16.5
2016-05-10T00:15:07.086Z,16.5
2016-05-10T00:15:17.115Z,16.5
2016-05-10T00:15:27.115Z,16.5
2016-05-10T00:15:37.115Z,16.5
2016-05-10T00:15:47.099Z,16.5
2016-05-10T00:15:57.099Z,16.5
2016-05-10T00:16:07.083Z,16.5
2016-05-10T00:16:17.127Z,16.5
2016-05-10T00:16:27.127Z,16.5
2016-05-10T00:16:37.112Z,16.5
2016-05-10T00:16:47.112Z,16.5
2016-05-10T00:16:57.112Z,16.5
2016-05-10T00:17:07.112Z,16.6
2016-05-10T00:17:17.122Z,16.6
2016-05-10T00:17:27.122Z,16.5
2016-05-10T00:17:37.122Z,16.5
2016-05-10T00:17:47.107Z,16.5
2016-05-10T00:17:57.107Z,16.5
2016-05-10T00:18:07.107Z,16.5
2016-05-10T00:18:17.124Z,16.5
2016-05-10T00:18:27.108Z,16.5
2016-05-10T00:18:37.108Z,16.6
2016-05-10T00:18:47.092Z,16.6
2016-05-10T00:18:57.092Z,16.5
2016-05-10T00:19:07.092Z,16.6
2016-05-10T00:19:17.109Z,16.6
2016-05-10T00:19:27.094Z,16.6
2016-05-10T00:19:37.094Z,16.5
2016-05-10T00:19:47.094Z,16.6
2016-05-10T00:19:57.078Z,16.5
2016-05-10T00:20:07.078Z,16.5
2016-05-10T00:20:17.096Z,16.6
2016-05-10T00:20:27.096Z,16.5
2016-05-10T00:20:37.080Z,16.6
2016-05-10T00:20:47.080Z,16.6
2016-05-10T00:20:57.065Z,16.5
2016-05-10T00:21:07.065Z,16.6
2016-05-10T00:21:17.097Z,16.6
2016-05-10T00:21:27.082Z,16.5
2016-05-10T00:21:37.082Z,16.6
2016-05-10T00:21:47.066Z,16.6
2016-05-10T00:21:57.066Z,16.6
2016-05-10T00:22:07.066Z,16.6
2016-05-10T00:22:17.062Z,16.6
2016-05-10T00:22:27.062Z,16.6
2016-05-10T00:22:37.046Z,16.7
2016-05-10T00:22:47.046Z,16.7
2016-05-10T00:22:57.046Z,16.6
2016-05-10T00:23:07.046Z,16.6
2016-05-10T00:23:17.038Z,16.6
2016-05-10T00:23:27.038Z,16.6
2016-05-10T00:23:37.038Z,16.7
2016-05-10T00:23:47.023Z,16.7
2016-05-10T00:23:57.023Z,16.7
2016-05-10T00:24:07.023Z,16.7
2016-05-10T00:24:17.016Z,16.7
2016-05-10T00:24:27.016Z,16.7
2016-05-10T00:24:37.016Z,16.7
2016-05-10T00:24:47.016Z,16.7
2016-05-10T00:24:57.000Z,16.7
2016-05-10T00:25:07.000Z,16.7
2016-05-10T00:25:17.007Z,16.7
2016-05-10T00:25:26.992Z,16.7
2016-05-10T00:25:36.992Z,16.7
2016-05-10T00:25:46.992Z,16.7
2016-05-10T00:25:56.976Z,16.6
2016-05-10T00:26:06.976Z,16.7
2016-05-10T00:26:16.984Z,16.6
2016-05-10T00:26:26.969Z,16.6
2016-05-10T00:26:36.969Z,16.7
2016-05-10T00:26:46.969Z,16.6
2016-05-10T00:26:56.969Z,16.7
2016-05-10T00:27:06.953Z,16.7
2016-05-10T00:27:16.959Z,16.7
2016-05-10T00:27:26.943Z,16.7
2016-05-10T00:27:36.943Z,16.7
2016-05-10T00:27:46.943Z,16.7
2016-05-10T00:27:56.943Z,16.7
2016-05-10T00:28:06.943Z,16.7
2016-05-10T00:28:16.933Z,16.7
2016-05-10T00:28:26.933Z,16.7
2016-05-10T00:28:36.933Z,16.8
2016-05-10T00:28:46.917Z,16.8
2016-05-10T00:28:56.917Z,16.7
2016-05-10T00:29:06.917Z,16.8
2016-05-10T00:29:16.906Z,16.8
2016-05-10T00:29:26.906Z,16.7
2016-05-10T00:29:36.906Z,16.7
2016-05-10T00:29:47.250Z,16.8
2016-05-10T00:29:56.891Z,16.7
2016-05-10T00:30:06.891Z,16.6
2016-05-10T00:30:16.895Z,16.7
2016-05-10T00:30:26.879Z,16.7
2016-05-10T00:30:36.879Z,16.7
2016-05-10T00:30:46.879Z,16.8
2016-05-10T00:30:56.864Z,16.7
2016-05-10T00:31:06.864Z,16.7
2016-05-10T00:31:16.853Z,16.8
2016-05-10T00:31:26.853Z,16.8
2016-05-10T00:31:36.853Z,16.8
2016-05-10T00:31:46.853Z,16.7
2016-05-10T00:31:56.853Z,16.7
2016-05-10T00:32:06.837Z,16.7
2016-05-10T00:32:16.840Z,16.7
2016-05-10T00:32:26.825Z,16.6
2016-05-10T00:32:36.825Z,16.7
2016-05-10T00:32:46.825Z,16.6
2016-05-10T00:32:56.825Z,16.7
2016-05-10T00:33:06.809Z,16.7
2016-05-10T00:33:16.813Z,16.7
2016-05-10T00:33:26.813Z,16.7
2016-05-10T00:33:36.797Z,16.7
2016-05-10T00:33:46.797Z,16.7
2016-05-10T00:33:56.797Z,16.7
2016-05-10T00:34:06.797Z,16.6
2016-05-10T00:34:16.785Z,16.7
2016-05-10T00:34:26.785Z,16.7
2016-05-10T00:34:36.785Z,16.7
2016-05-10T00:34:46.769Z,16.7
2016-05-10T00:34:56.769Z,16.6
2016-05-10T00:35:06.754Z,16.6
2016-05-10T00:35:16.758Z,16.7
2016-05-10T00:35:26.773Z,16.6
2016-05-10T00:35:36.758Z,16.7
2016-05-10T00:35:46.742Z,16.7
2016-05-10T00:35:56.742Z,16.6
2016-05-10T00:36:06.742Z,16.6
2016-05-10T00:36:16.729Z,16.6
2016-05-10T00:36:26.729Z,16.7
2016-05-10T00:36:36.729Z,16.6
2016-05-10T00:36:46.729Z,16.6
2016-05-10T00:36:56.714Z,16.7
2016-05-10T00:37:06.714Z,16.7
2016-05-10T00:37:16.701Z,16.7
2016-05-10T00:37:26.701Z,16.6
2016-05-10T00:37:36.701Z,16.6
2016-05-10T00:37:46.717Z,16.5
2016-05-10T00:37:56.701Z,16.6
2016-05-10T00:38:06.685Z,16.5
2016-05-10T00:38:16.689Z,16.6
2016-05-10T00:38:26.674Z,16.5
2016-05-10T00:38:36.674Z,16.5
2016-05-10T00:38:46.674Z,16.6
2016-05-10T00:38:56.674Z,16.7
2016-05-10T00:39:06.658Z,16.5
2016-05-10T00:39:16.658Z,16.6
2016-05-10T00:39:26.645Z,16.5
2016-05-10T00:39:36.645Z,16.5
2016-05-10T00:39:46.645Z,16.6
2016-05-10T00:39:56.629Z,16.5
2016-05-10T00:40:06.629Z,16.5
2016-05-10T00:40:16.629Z,16.6
2016-05-10T00:40:26.632Z,16.6
2016-05-10T00:40:36.616Z,16.6
2016-05-10T00:40:46.616Z,16.6
2016-05-10T00:40:56.616Z,16.6
2016-05-10T00:41:06.601Z,16.6
2016-05-10T00:41:16.601Z,16.5
2016-05-10T00:41:26.604Z,16.5
2016-05-10T00:41:36.588Z,16.4
2016-05-10T00:41:46.588Z,16.6
2016-05-10T00:41:56.588Z,16.5
2016-05-10T00:42:06.588Z,16.5
2016-05-10T00:42:16.588Z,16.5
2016-05-10T00:42:26.575Z,16.5
2016-05-10T00:42:36.575Z,16.5
2016-05-10T00:42:46.560Z,16.6
2016-05-10T00:42:56.560Z,16.5
2016-05-10T00:43:06.560Z,16.5
2016-05-10T00:43:16.544Z,16.6
2016-05-10T00:43:26.547Z,16.5
2016-05-10T00:43:36.547Z,16.5
2016-05-10T00:43:46.547Z,16.5
2016-05-10T00:43:56.532Z,16.5
2016-05-10T00:44:06.532Z,16.5
2016-05-10T00:44:16.532Z,16.5
2016-05-10T00:44:26.534Z,16.5
2016-05-10T00:44:36.518Z,16.5
2016-05-10T00:44:46.612Z,16.5
2016-05-10T00:44:56.659Z,16.5
2016-05-10T00:45:06.502Z,16.5
2016-05-10T00:45:16.502Z,16.5
2016-05-10T00:45:26.506Z,16.5
2016-05-10T00:45:36.491Z,16.5
2016-05-10T00:45:46.491Z,16.5
2016-05-10T00:45:56.491Z,16.5
2016-05-10T00:46:06.475Z,16.5
2016-05-10T00:46:16.475Z,16.5
2016-05-10T00:46:26.461Z,16.5
2016-05-10T00:46:36.461Z,16.5
2016-05-10T00:46:46.461Z,16.6
2016-05-10T00:46:56.461Z,16.5
2016-05-10T00:47:06.461Z,16.5
2016-05-10T00:47:16.446Z,16.5
2016-05-10T00:47:26.449Z,16.5
2016-05-10T00:47:36.433Z,16.5
2016-05-10T00:47:46.433Z,16.5
2016-05-10T00:47:56.433Z,16.5
2016-05-10T00:48:06.433Z,16.5
2016-05-10T00:48:16.433Z,16.5
2016-05-10T00:48:26.421Z,16.5
2016-05-10T00:48:36.421Z,16.5
2016-05-10T00:48:46.405Z,16.5
2016-05-10T00:48:56.405Z,16.5
2016-05-10T00:49:06.405Z,16.5
2016-05-10T00:49:16.389Z,16.5
2016-05-10T00:49:26.391Z,16.5
2016-05-10T00:49:36.391Z,16.5
2016-05-10T00:49:46.391Z,16.4
2016-05-10T00:49:56.376Z,16.5
2016-05-10T00:50:06.376Z,16.5
2016-05-10T00:50:16.360Z,16.5
2016-05-10T00:50:26.363Z,16.5
2016-05-10T00:50:36.363Z,16.5
2016-05-10T00:50:46.363Z,16.5
2016-05-10T00:50:56.363Z,16.5
2016-05-10T00:51:06.347Z,16.5
2016-05-10T00:51:16.332Z,16.5
2016-05-10T00:51:26.349Z,16.5
2016-05-10T00:51:36.334Z,16.5
2016-05-10T00:51:46.334Z,16.5
2016-05-10T00:51:56.334Z,16.4
2016-05-10T00:52:06.318Z,16.5
2016-05-10T00:52:16.318Z,16.5
2016-05-10T00:52:26.321Z,16.5
2016-05-10T00:52:36.306Z,16.4
2016-05-10T00:52:46.306Z,16.5
2016-05-10T00:52:56.306Z,16.5
2016-05-10T00:53:06.290Z,16.5
2016-05-10T00:53:16.290Z,16.4
2016-05-10T00:53:26.293Z,16.5
2016-05-10T00:53:36.277Z,16.5
2016-05-10T00:53:46.277Z,16.5
2016-05-10T00:53:56.277Z,16.5
2016-05-10T00:54:06.277Z,16.5
2016-05-10T00:54:16.262Z,16.5
2016-05-10T00:54:26.265Z,16.5
2016-05-10T00:54:36.265Z,16.4
2016-05-10T00:54:46.265Z,16.4
2016-05-10T00:54:56.249Z,16.5
2016-05-10T00:55:06.249Z,16.5
2016-05-10T00:55:16.233Z,16.5
2016-05-10T00:55:26.236Z,16.4
2016-05-10T00:55:36.236Z,16.5
2016-05-10T00:55:46.221Z,16.5
2016-05-10T00:55:56.221Z,16.4
2016-05-10T00:56:06.221Z,16.4
2016-05-10T00:56:16.221Z,16.5
2016-05-10T00:56:26.207Z,16.5
2016-05-10T00:56:36.207Z,16.4
2016-05-10T00:56:46.207Z,16.5
2016-05-10T00:56:56.192Z,16.4
2016-05-10T00:57:06.192Z,16.5
2016-05-10T00:57:16.192Z,16.4
2016-05-10T00:57:26.195Z,16.4
2016-05-10T00:57:36.179Z,16.4
2016-05-10T00:57:46.179Z,16.4
2016-05-10T00:57:56.179Z,16.4
2016-05-10T00:58:06.163Z,16.4
2016-05-10T00:58:16.163Z,16.4
2016-05-10T00:58:26.165Z,16.4
2016-05-10T00:58:36.150Z,16.4
2016-05-10T00:58:46.150Z,16.4
2016-05-10T00:58:56.150Z,16.4
2016-05-10T00:59:06.134Z,16.3
2016-05-10T00:59:16.134Z,16.4
2016-05-10T00:59:26.231Z,16.4
2016-05-10T00:59:36.215Z,16.4
2016-05-10T00:59:46.121Z,16.4
2016-05-10T00:59:56.121Z,16.4
2016-05-10T01:00:06.106Z,16.4
2016-05-10T01:00:16.106Z,16.4
2016-05-10T01:00:26.109Z,16.4
2016-05-10T01:00:36.124Z,16.3
2016-05-10T01:00:46.093Z,16.4
2016-05-10T01:00:56.093Z,16.3
2016-05-10T01:01:06.093Z,16.3
2016-05-10T01:01:16.078Z,16.3
2016-05-10T01:01:26.080Z,16.4
2016-05-10T01:01:36.080Z,16.3
2016-05-10T01:01:46.064Z,16.5
2016-05-10T01:01:56.064Z,16.3
2016-05-10T01:02:06.064Z,16.3
2016-05-10T01:02:16.064Z,16.4
2016-05-10T01:02:26.051Z,16.3
2016-05-10T01:02:36.051Z,16.3
2016-05-10T01:02:46.036Z,16.4
2016-05-10T01:02:56.051Z,16.4
2016-05-10T01:03:06.036Z,16.3
2016-05-10T01:03:16.036Z,16.3
2016-05-10T01:03:26.023Z,16.3
2016-05-10T01:03:36.023Z,16.3
2016-05-10T01:03:46.023Z,16.4
2016-05-10T01:03:56.007Z,16.5
2016-05-10T01:04:06.007Z,16.3
2016-05-10T01:04:16.007Z,16.4
2016-05-10T01:04:25.995Z,16.4
2016-05-10T01:04:35.995Z,16.5
2016-05-10T01:04:45.995Z,16.3
2016-05-10T01:04:55.995Z,16.4
2016-05-10T01:05:05.995Z,16.3
2016-05-10T01:05:15.979Z,16.4
2016-05-10T01:05:25.981Z,16.3
2016-05-10T01:05:35.966Z,16.3
2016-05-10T01:05:45.966Z,16.2
2016-05-10T01:05:55.966Z,16.3
2016-05-10T01:06:05.950Z,16.4
2016-05-10T01:06:15.950Z,16.4
2016-05-10T01:06:25.953Z,16.3
2016-05-10T01:06:35.937Z,16.4
2016-05-10T01:06:45.937Z,16.4
2016-05-10T01:06:55.937Z,16.3
2016-05-10T01:07:05.937Z,16.3
2016-05-10T01:07:15.922Z,16.2
2016-05-10T01:07:25.925Z,16.4
2016-05-10T01:07:35.909Z,16.2
2016-05-10T01:07:45.909Z,16.3
2016-05-10T01:07:55.909Z,16.3
2016-05-10T01:08:05.909Z,16.3
2016-05-10T01:08:15.909Z,16.3
2016-05-10T01:08:25.895Z,16.3
2016-05-10T01:08:35.895Z,16.2
2016-05-10T01:08:45.880Z,16.3
2016-05-10T01:08:55.880Z,16.2
2016-05-10T01:09:05.880Z,16.2
2016-05-10T01:09:15.880Z,16.2
2016-05-10T01:09:25.867Z,16.2
2016-05-10T01:09:35.867Z,16.2
2016-05-10T01:09:45.852Z,16.2
2016-05-10T01:09:55.852Z,16.2
2016-05-10T01:10:05.852Z,16.2
2016-05-10T01:10:15.852Z,16.2
2016-05-10T01:10:25.839Z,16.2
2016-05-10T01:10:35.839Z,16.2
2016-05-10T01:10:45.839Z,16.2
2016-05-10T01:10:55.823Z,16.2
2016-05-10T01:11:05.823Z,16.2
2016-05-10T01:11:15.823Z,16.2
2016-05-10T01:11:25.825Z,16.2
2016-05-10T01:11:35.825Z,16.3
2016-05-10T01:11:45.810Z,16.1
2016-05-10T01:11:55.810Z,16.1
2016-05-10T01:12:05.794Z,16.2
2016-05-10T01:12:15.794Z,16.2
2016-05-10T01:12:25.797Z,16.2
2016-05-10T01:12:35.797Z,16.2
2016-05-10T01:12:45.781Z,16.2
2016-05-10T01:12:55.781Z,16.2
2016-05-10T01:13:05.766Z,16.2
2016-05-10T01:13:15.766Z,16.2
2016-05-10T01:13:25.769Z,16.2
2016-05-10T01:13:35.769Z,16.1
2016-05-10T01:13:45.753Z,16.2
2016-05-10T01:13:55.753Z,16.1
2016-05-10T01:14:05.753Z,16.1
2016-05-10T01:14:15.738Z,16.2
2016-05-10T01:14:25.741Z,16.1
2016-05-10T01:14:35.725Z,16.2
2016-05-10T01:14:45.725Z,16.2
2016-05-10T01:14:55.725Z,16.1
2016-05-10T01:15:05.725Z,16.1
2016-05-10T01:15:15.725Z,16.1
2016-05-10T01:15:25.711Z,16.1
2016-05-10T01:15:35.711Z,16.1
2016-05-10T01:15:45.696Z,16.1
2016-05-10T01:15:55.696Z,16.1
2016-05-10T01:16:05.696Z,16.1
2016-05-10T01:16:15.680Z,16.1
2016-05-10T01:16:25.683Z,16.1
2016-05-10T01:16:35.683Z,16.1
2016-05-10T01:16:45.683Z,16.1
2016-05-10T01:16:55.683Z,16.1
2016-05-10T01:17:05.667Z,16.1
2016-05-10T01:17:15.667Z,16.1
2016-05-10T01:17:25.655Z,16.1
2016-05-10T01:17:35.655Z,16.1
2016-05-10T01:17:45.655Z,16.1
2016-05-10T01:17:55.639Z,16.1
2016-05-10T01:18:05.639Z,16
2016-05-10T01:18:15.639Z,16.1
2016-05-10T01:18:25.641Z,16.1
2016-05-10T01:18:35.626Z,16.1
2016-05-10T01:18:45.626Z,16.1
2016-05-10T01:18:55.610Z,16.1
2016-05-10T01:19:05.610Z,16.1
2016-05-10T01:19:15.610Z,16.1
2016-05-10T01:19:25.613Z,16.1
2016-05-10T01:19:35.597Z,16.1
2016-05-10T01:19:45.597Z,16
2016-05-10T01:19:55.582Z,16
2016-05-10T01:20:05.597Z,16.1
2016-05-10T01:20:15.582Z,16
2016-05-10T01:20:25.585Z,16
2016-05-10T01:20:35.585Z,16
2016-05-10T01:20:45.569Z,16
2016-05-10T01:20:55.569Z,16.1
2016-05-10T01:21:05.569Z,16
2016-05-10T01:21:15.553Z,16
2016-05-10T01:21:25.555Z,16
2016-05-10T01:21:35.555Z,16
2016-05-10T01:21:45.540Z,16
2016-05-10T01:21:55.540Z,16
2016-05-10T01:22:05.540Z,16.1
2016-05-10T01:22:15.540Z,16
2016-05-10T01:22:25.527Z,16.1
2016-05-10T01:22:35.527Z,16
2016-05-10T01:22:45.527Z,16
2016-05-10T01:22:55.512Z,16
2016-05-10T01:23:05.512Z,16
2016-05-10T01:23:15.512Z,16.1
2016-05-10T01:23:25.515Z,16
2016-05-10T01:23:35.499Z,16
2016-05-10T01:23:45.499Z,16
2016-05-10T01:23:55.499Z,16
2016-05-10T01:24:05.499Z,16
2016-05-10T01:24:15.483Z,16
2016-05-10T01:24:25.471Z,15.9
2016-05-10T01:24:35.471Z,16
2016-05-10T01:24:45.471Z,16
2016-05-10T01:24:55.471Z,16
2016-05-10T01:25:05.455Z,16
2016-05-10T01:25:15.455Z,16
2016-05-10T01:25:25.441Z,16
2016-05-10T01:25:35.441Z,15.9
2016-05-10T01:25:45.441Z,16
2016-05-10T01:25:55.426Z,16
2016-05-10T01:26:05.426Z,15.9
2016-05-10T01:26:15.426Z,15.9
2016-05-10T01:26:25.429Z,15.9
2016-05-10T01:26:35.413Z,16
2016-05-10T01:26:45.413Z,16
2016-05-10T01:26:55.413Z,15.9
2016-05-10T01:27:05.413Z,15.9
2016-05-10T01:27:15.398Z,16
2016-05-10T01:27:25.400Z,15.9
2016-05-10T01:27:35.384Z,15.9
2016-05-10T01:27:45.384Z,16
2016-05-10T01:27:55.384Z,16
2016-05-10T01:28:05.384Z,15.9
2016-05-10T01:28:15.384Z,15.9
2016-05-10T01:28:25.371Z,15.9
2016-05-10T01:28:35.371Z,15.9
2016-05-10T01:28:45.356Z,15.9
2016-05-10T01:28:55.356Z,16
2016-05-10T01:29:05.356Z,15.9
2016-05-10T01:29:15.340Z,15.9
2016-05-10T01:29:25.343Z,15.9
2016-05-10T01:29:35.343Z,15.9
2016-05-10T01:29:45.343Z,15.9
2016-05-10T01:29:55.359Z,15.9
2016-05-10T01:30:05.327Z,15.9
2016-05-10T01:30:15.327Z,15.9
2016-05-10T01:30:25.314Z,15.9
2016-05-10T01:30:35.314Z,15.9
2016-05-10T01:30:45.314Z,15.9
2016-05-10T01:30:55.314Z,15.9
2016-05-10T01:31:05.298Z,15.9
2016-05-10T01:31:15.298Z,15.9
2016-05-10T01:31:25.286Z,15.9
2016-05-10T01:31:35.286Z,15.9
2016-05-10T01:31:45.286Z,15.9
2016-05-10T01:31:55.270Z,15.9
2016-05-10T01:32:05.270Z,15.9
2016-05-10T01:32:15.270Z,15.9
2016-05-10T01:32:25.273Z,16
2016-05-10T01:32:35.273Z,15.9
2016-05-10T01:32:45.257Z,15.9
2016-05-10T01:32:55.257Z,15.9
2016-05-10T01:33:05.257Z,15.9
2016-05-10T01:33:15.242Z,15.9
2016-05-10T01:33:25.245Z,15.9
2016-05-10T01:33:35.245Z,15.9
2016-05-10T01:33:45.229Z,16
2016-05-10T01:33:55.229Z,15.9
2016-05-10T01:34:05.213Z,16
2016-05-10T01:34:15.213Z,15.9
2016-05-10T01:34:25.215Z,15.9
2016-05-10T01:34:35.215Z,15.9
2016-05-10T01:34:45.200Z,15.9
2016-05-10T01:34:55.200Z,15.9
2016-05-10T01:35:05.200Z,15.9
2016-05-10T01:35:15.184Z,16
2016-05-10T01:35:25.187Z,15.9
2016-05-10T01:35:35.187Z,16
2016-05-10T01:35:45.187Z,15.9
2016-05-10T01:35:55.172Z,15.9
2016-05-10T01:36:05.172Z,15.9
2016-05-10T01:36:15.156Z,16
2016-05-10T01:36:25.159Z,15.9
2016-05-10T01:36:35.159Z,15.9
2016-05-10T01:36:45.159Z,15.9
2016-05-10T01:36:55.143Z,16
2016-05-10T01:37:05.143Z,15.9
2016-05-10T01:37:15.143Z,16
2016-05-10T01:37:25.130Z,16
2016-05-10T01:37:35.130Z,16
2016-05-10T01:37:45.130Z,16
2016-05-10T01:37:55.130Z,16
2016-05-10T01:38:05.114Z,16
2016-05-10T01:38:15.114Z,16
2016-05-10T01:38:25.101Z,16
2016-05-10T01:38:35.101Z,16
2016-05-10T01:38:45.101Z,16
2016-05-10T01:38:55.101Z,16
2016-05-10T01:39:05.086Z,16
2016-05-10T01:39:15.086Z,15.9
2016-05-10T01:39:25.073Z,16
2016-05-10T01:39:35.073Z,16
2016-05-10T01:39:45.073Z,16
2016-05-10T01:39:55.073Z,15.9
2016-05-10T01:40:05.073Z,16
2016-05-10T01:40:15.058Z,16
2016-05-10T01:40:25.061Z,16
2016-05-10T01:40:35.061Z,16
2016-05-10T01:40:45.045Z,16
2016-05-10T01:40:55.045Z,16
2016-05-10T01:41:05.045Z,16
2016-05-10T01:41:15.045Z,16
2016-05-10T01:41:25.031Z,16
2016-05-10T01:41:35.031Z,16
2016-05-10T01:41:45.016Z,16
2016-05-10T01:41:55.016Z,16
2016-05-10T01:42:05.016Z,16.1
2016-05-10T01:42:15.000Z,15.9
2016-05-10T01:42:25.003Z,15.9
2016-05-10T01:42:35.003Z,15.9
2016-05-10T01:42:44.987Z,16
2016-05-10T01:42:54.987Z,16
2016-05-10T01:43:04.987Z,16
2016-05-10T01:43:14.987Z,16
2016-05-10T01:43:24.974Z,16.1
2016-05-10T01:43:34.974Z,15.9
2016-05-10T01:43:44.974Z,16
2016-05-10T01:43:54.958Z,16
2016-05-10T01:44:04.958Z,16
2016-05-10T01:44:14.943Z,16
2016-05-10T01:44:24.946Z,16
2016-05-10T01:44:34.946Z,16
2016-05-10T01:44:44.930Z,16
2016-05-10T01:44:54.946Z,16
2016-05-10T01:45:05.055Z,16
2016-05-10T01:45:14.930Z,16
2016-05-10T01:45:24.933Z,16
2016-05-10T01:45:34.917Z,16
2016-05-10T01:45:44.917Z,16
2016-05-10T01:45:54.917Z,16
2016-05-10T01:46:04.902Z,16
2016-05-10T01:46:14.902Z,16
2016-05-10T01:46:24.889Z,15.9
2016-05-10T01:46:34.889Z,16
2016-05-10T01:46:44.889Z,16
2016-05-10T01:46:54.889Z,16
2016-05-10T01:47:04.889Z,16
2016-05-10T01:47:14.873Z,16
2016-05-10T01:47:24.876Z,16
2016-05-10T01:47:34.861Z,15.9
2016-05-10T01:47:44.861Z,16
2016-05-10T01:47:54.861Z,16
2016-05-10T01:48:04.845Z,15.9
2016-05-10T01:48:14.845Z,16
2016-05-10T01:48:24.847Z,16
2016-05-10T01:48:34.847Z,16
2016-05-10T01:48:44.832Z,15.9
2016-05-10T01:48:54.832Z,16
2016-05-10T01:49:04.832Z,16
2016-05-10T01:49:14.816Z,16
2016-05-10T01:49:24.818Z,16
2016-05-10T01:49:34.802Z,16.1
2016-05-10T01:49:44.802Z,16
2016-05-10T01:49:54.802Z,16
2016-05-10T01:50:04.802Z,16
2016-05-10T01:50:14.802Z,15.9
2016-05-10T01:50:24.790Z,16
2016-05-10T01:50:34.790Z,16
2016-05-10T01:50:44.790Z,16
2016-05-10T01:50:54.774Z,16
2016-05-10T01:51:04.774Z,16
2016-05-10T01:51:14.774Z,16
2016-05-10T01:51:24.777Z,16
2016-05-10T01:51:34.761Z,15.9
2016-05-10T01:51:44.746Z,16
2016-05-10T01:51:54.746Z,16
2016-05-10T01:52:04.746Z,15.9
2016-05-10T01:52:14.761Z,15.9
2016-05-10T01:52:24.749Z,16
2016-05-10T01:52:34.733Z,16
2016-05-10T01:52:44.733Z,15.9
2016-05-10T01:52:54.718Z,16
2016-05-10T01:53:04.718Z,16
2016-05-10T01:53:14.718Z,15.9
2016-05-10T01:53:24.721Z,15.9
2016-05-10T01:53:34.705Z,15.9
2016-05-10T01:53:44.705Z,15.9
2016-05-10T01:53:54.705Z,16
2016-05-10T01:54:04.689Z,15.9
2016-05-10T01:54:14.689Z,16
2016-05-10T01:54:24.691Z,15.9
2016-05-10T01:54:34.676Z,15.9
2016-05-10T01:54:44.676Z,15.9
2016-05-10T01:54:54.676Z,15.9
2016-05-10T01:55:04.676Z,15.9
2016-05-10T01:55:14.660Z,15.9
2016-05-10T01:55:24.663Z,15.9
2016-05-10T01:55:34.663Z,16
2016-05-10T01:55:44.647Z,15.9
2016-05-10T01:55:54.647Z,15.9
2016-05-10T01:56:04.632Z,15.9
2016-05-10T01:56:14.632Z,15.9
2016-05-10T01:56:24.634Z,15.9
2016-05-10T01:56:34.634Z,15.9
2016-05-10T01:56:44.618Z,15.9
2016-05-10T01:56:54.618Z,15.9
2016-05-10T01:57:04.618Z,15.9
2016-05-10T01:57:14.603Z,15.9
2016-05-10T01:57:24.607Z,15.9
2016-05-10T01:57:34.607Z,15.9
2016-05-10T01:57:44.591Z,15.9
2016-05-10T01:57:54.591Z,15.9
2016-05-10T01:58:04.591Z,15.9
2016-05-10T01:58:14.591Z,15.9
2016-05-10T01:58:24.577Z,15.9
2016-05-10T01:58:34.577Z,15.9
2016-05-10T01:58:44.562Z,15.9
2016-05-10T01:58:54.562Z,15.9
2016-05-10T01:59:04.562Z,15.9
2016-05-10T01:59:14.562Z,15.9
2016-05-10T01:59:24.565Z,15.9
2016-05-10T01:59:34.549Z,15.9
2016-05-10T01:59:44.971Z,15.8
2016-05-10T01:59:54.549Z,15.9
2016-05-10T02:00:04.533Z,15.9
2016-05-10T02:00:14.533Z,15.8
2016-05-10T02:00:24.520Z,15.8
2016-05-10T02:00:34.520Z,15.8
2016-05-10T02:00:44.520Z,15.9
2016-05-10T02:00:54.520Z,15.9
2016-05-10T02:01:04.504Z,15.9
2016-05-10T02:01:14.504Z,15.9
2016-05-10T02:01:24.507Z,15.9
2016-05-10T02:01:34.492Z,15.9
2016-05-10T02:01:44.492Z,15.9
2016-05-10T02:01:54.492Z,15.9
2016-05-10T02:02:04.492Z,15.8
2016-05-10T02:02:14.476Z,15.9
2016-05-10T02:02:24.478Z,15.9
2016-05-10T02:02:34.462Z,15.9
2016-05-10T02:02:44.462Z,15.9
2016-05-10T02:02:54.462Z,15.9
2016-05-10T02:03:04.462Z,15.8
2016-05-10T02:03:14.447Z,15.9
2016-05-10T02:03:24.450Z,15.9
2016-05-10T02:03:34.434Z,15.9
2016-05-10T02:03:44.434Z,15.9
2016-05-10T02:03:54.434Z,15.8
2016-05-10T02:04:04.434Z,15.9
2016-05-10T02:04:14.418Z,15.9
2016-05-10T02:04:24.421Z,15.9
2016-05-10T02:04:34.421Z,15.9
2016-05-10T02:04:44.406Z,15.9
2016-05-10T02:04:54.406Z,15.8
2016-05-10T02:05:04.406Z,15.9
2016-05-10T02:05:14.390Z,15.8
2016-05-10T02:05:24.393Z,15.9
2016-05-10T02:05:34.393Z,15.9
2016-05-10T02:05:44.393Z,15.9
2016-05-10T02:05:54.378Z,15.9
2016-05-10T02:06:04.378Z,15.8
2016-05-10T02:06:14.378Z,15.9
2016-05-10T02:06:24.365Z,15.9
2016-05-10T02:06:34.365Z,15.9
2016-05-10T02:06:44.365Z,15.9
2016-05-10T02:06:54.349Z,15.9
2016-05-10T02:07:04.349Z,15.8
2016-05-10T02:07:14.349Z,15.9
2016-05-10T02:07:24.351Z,15.9
2016-05-10T02:07:34.336Z,15.9
2016-05-10T02:07:44.336Z,15.8
2016-05-10T02:07:54.336Z,15.9
2016-05-10T02:08:04.320Z,15.8
2016-05-10T02:08:14.320Z,15.9
2016-05-10T02:08:24.322Z,15.9
2016-05-10T02:08:34.306Z,15.9
2016-05-10T02:08:44.306Z,15.9
2016-05-10T02:08:54.306Z,15.9
2016-05-10T02:09:04.291Z,15.8
2016-05-10T02:09:14.291Z,15.8
2016-05-10T02:09:24.294Z,15.9
2016-05-10T02:09:34.294Z,15.9
2016-05-10T02:09:44.278Z,15.9
2016-05-10T02:09:54.278Z,15.9
2016-05-10T02:10:04.263Z,15.8
2016-05-10T02:10:14.263Z,15.9
2016-05-10T02:10:24.266Z,15.7
2016-05-10T02:10:34.250Z,15.8
2016-05-10T02:10:44.250Z,15.8
2016-05-10T02:10:54.250Z,15.8
2016-05-10T02:11:04.250Z,15.8
2016-05-10T02:11:14.234Z,15.9
2016-05-10T02:11:24.237Z,15.8
2016-05-10T02:11:34.237Z,15.8
2016-05-10T02:11:44.222Z,15.8
2016-05-10T02:11:54.222Z,15.7
2016-05-10T02:12:04.222Z,15.8
2016-05-10T02:12:14.222Z,15.8
2016-05-10T02:12:24.209Z,15.8
2016-05-10T02:12:34.209Z,15.7
2016-05-10T02:12:44.193Z,15.8
2016-05-10T02:12:54.193Z,15.8
2016-05-10T02:13:04.193Z,15.8
2016-05-10T02:13:14.193Z,15.9
2016-05-10T02:13:24.180Z,15.8
2016-05-10T02:13:34.180Z,15.8
2016-05-10T02:13:44.164Z,15.8
2016-05-10T02:13:54.164Z,15.8
2016-05-10T02:14:04.164Z,15.9
2016-05-10T02:14:14.164Z,15.8
2016-05-10T02:14:24.152Z,15.8